Monday, April 23, 2018, 1:52 AM GMT
Back to Local

CWQO, Ile Bicquette, Que.

Location: , , Canada Lat: 48.416
Local Time: 1:52 AM GMT ( 1:52 GMT) Lon: -68.893
Time Zone: GMT Elev: 22 ft

Show me the last for .
Show Coded

Time T Td Feel RH Dir Speed Gust Alt SLP Vis Weather Sky Remarks
2018-04-23 01:00 38 29 30 69 220° 13 - - - 0 Peak wind: 19 mph (17 kts) from 220° at 02 min
2018-04-23 00:00 39 28 29 66 220° 17 - - - 0 Peak wind: 20 mph (18 kts) from 220° at 42 min
2018-04-22 23:00 39 29 30 66 220° 17 - - - 0 Peak wind: 20 mph (18 kts) from 230° at 39 min
2018-04-22 22:00 39 29 29 67 230° 18 - - - 0 Peak wind: 20 mph (18 kts) from 230° at 53 min
2018-04-22 21:00 40 28 33 61 230° 14 - - - 0 None
2018-04-22 20:00 43 27 36 52 230° 13 - - - 0 None
2018-04-22 19:00 43 24 37 47 220° 12 - - - 0 None
2018-04-22 18:00 41 27 35 57 230° 12 - - - 0 None
2018-04-22 17:00 41 21 37 43 180° 7 - - - 0 None
2018-04-22 16:00 41 26 37 54 200° 6 - - - 0 None
2018-04-22 15:00 39 21 35 47 200° 6 - - - 0 None
2018-04-22 14:00 38 23 34 54 240° 5 - - - 0 None
2018-04-22 13:00 37 19 31 47 340° 7 - - - 0 None
2018-04-22 12:00 35 19 27 50 340° 10 - - - 0 None
2018-04-22 11:00 34 17 24 50 320° 15 - - - 0 Peak wind: 19 mph (17 kts) from 310° at 01 min
2018-04-22 10:00 34 22 24 60 310° 16 - - - 0 Peak wind: 19 mph (17 kts) from 310° at 58 min
2018-04-22 09:00 34 20 24 55 320° 16 - - - 0 Peak wind: 19 mph (17 kts) from 320° at 50 min
2018-04-22 08:00 35 22 25 57 320° 16 - - - 0 Peak wind: 19 mph (17 kts) from 310° at 18 min
2018-04-22 07:00 35 26 26 67 320° 14 - - - 0 None
2018-04-22 06:00 36 24 27 59 330° 15 - - - 0 None
2018-04-22 05:00 37 24 28 58 340° 14 - - - 0 Peak wind: 19 mph (17 kts) from 340° at 09 min
2018-04-22 04:00 38 23 29 54 340° 16 - - - 0 None
2018-04-22 03:00 38 25 28 60 310° 17 - - - 0 Peak wind: 19 mph (17 kts) from 320° at 48 min
2018-04-22 02:00 37 26 27 65 310° 17 - - - 0 None

Support USWX by starting your Amazon purchase here.